Terminal Aerodrome Forecast
Issued by NWS Portland, ME

Home | Current Version | Previous Version | Text Only | Print | Product List | Glossary On
Versions: 1 2 3 4 5 6 7 8 9 10 11 12 13 14 15 16 17 18 19
000
FTUS41 KGYX 021120
TAFCON
TAF
KCON 021120Z 0212/0312 05003KT 2SM -DZRA BR OVC005
     FM030000 36003KT P6SM SCT007 BKN025
     FM030200 00000KT 1/2SM FG VV002=

USA.gov is the U.S. government's official web portal to all federal, state and local government web resources and services.